Portada
METAR-TAF:

METAR-TAF

Aeroports :

Woensdrecht, Països Baixos

latitud: 51-27N, longitud: 004-20E, altitud: 20 m

Observació

L'informe es va fer fa 36 minuts, a les 15:55 UTC
Vent 4 kt del Nord-Est, variant entre Nord i Sud-Est
Temperatura 25°C
Humitat 41%
Pressió 1013 hPa
Visibilitat 10 km o més
Cel ennuvolat a una alçada de 4800 ft
Cel cobert a una alçada de 5500 ft

METAR: EHWO 171555Z AUTO 04004KT 360V140 9999 BKN048 OVC055 25/11 Q1013 BLU

Hora: 18:31 (16:31 UTC)

Pronòstic

L'informe es va fer fa 8 hores i 14 minuts, a les 08:17 UTC
Pronòstic vàlid del 17 a les 09 UTC al 17 a les 21 UTC
Vent 3 kt amb direcció variable
Visibilitat 10 km o més
sense núvols per sota de 1500 mi sense presència de cumulonimbus.
Evolucionant progressivament
l' 17 a les 10 UTC al 17 a les 13 UTC
Vent 4 kt del Nord-Est
Núvols disperses a una alçada de 2000 ft

TAF: EHWO 170817Z 1709/1721 VRB03KT CAVOK BECMG 1710/1713 04004KT SCT020

Observacions i pronòstics meteorològics de més de 4000 aeroports (METAR i TAF).

Les estacions disponibles són els punts grocs i vermells al mapa.

Posi el ratolí al punt desitjat per veure el nom de l'estació.

Feu clic per veure les observacions i els pronòstics meteorològics.

Per canviar el mapa: feu clic els botons verds amb una creu de color negre per apropar; al botó verd amb un guió per allunyar la imatge; o en les fletxes verdes per a mapes adjacents.


METAR-TAF: